Flight Track Log - Related Links

Times and Time Zones

All times are in EDT time to prevent confusion due to time zone crossing. See the HL-7755 flight status page for this flight to view local times or setup timezone preferences in your user account.

Time Position Orientation Groundspeed Altitude Reporting Facility
EDT Latitude Longitude Course Direction KTS MPH feet Rate Location/Type
Wed 04:23:15 PM 37.6454 -122.3953 275° West  Level FlightAware Approximate
Wed 04:24:15 PM 37.6950 -122.5284 128° Southeast  Level FlightAware Approximate
Wed 04:24:56 PM 37.6492 -122.4531 298° West 169 194 3,000  Level Oakland Center
Wed 04:25:56 PM 37.6797 -122.5244 295° West 195 224 4,300 1,950 Climbing Oakland Center
Wed 04:26:56 PM 37.7097 -122.6064 306° West 233 268 6,900 2,500 Climbing Oakland Center
Wed 04:27:56 PM 37.7547 -122.6861 308° West 258 297 9,300 1,934 Climbing Oakland Center
Wed 04:28:57 PM 37.8033 -122.7661 308° West 277 319 10,800 1,450 Climbing Oakland Center
Wed 04:29:56 PM 37.8625 -122.8622 307° West 312 359 12,200 1,916 Climbing Oakland Center
Wed 04:30:56 PM 37.9233 -122.9639 307° West 348 400 14,600 2,250 Climbing Oakland Center
Wed 04:31:56 PM 37.9842 -123.0658 329° Northwest 359 413 16,700 1,850 Climbing Oakland Center
Wed 04:32:56 PM 38.0767 -123.1369 335° Northwest 377 434 18,300 1,650 Climbing Oakland Center
Wed 04:33:56 PM 38.1778 -123.1981 335° Northwest 382 440 20,000 1,700 Climbing Oakland Center
Wed 04:34:56 PM 38.2831 -123.2619 334° Northwest 399 459 21,700 1,600 Climbing Oakland Center
Wed 04:35:56 PM 38.3881 -123.3264 335° Northwest 410 472 23,200 1,450 Climbing Oakland Center
Wed 04:36:56 PM 38.4972 -123.3908 333° Northwest 421 484 24,600 1,450 Climbing Oakland Center
Wed 04:37:56 PM 38.6064 -123.4611 335° Northwest 426 490 26,100 1,350 Climbing Oakland Center
Wed 04:38:56 PM 38.7175 -123.5286 334° Northwest 431 496 27,300 1,150 Climbing Oakland Center
Wed 04:39:56 PM 38.8308 -123.5994 334° Northwest 444 511 28,400 1,150 Climbing Oakland Center
Wed 04:40:56 PM 38.9458 -123.6703 334° Northwest 449 517 29,600 1,100 Climbing Oakland Center
Wed 04:41:56 PM 39.0447 -123.7328 335° Northwest 449 517 30,600 1,100 Climbing Oakland Center
Wed 04:42:56 PM 39.1578 -123.8014 333° Northwest 449 517 31,800 700 Climbing Oakland Center
Wed 04:43:56 PM 39.2767 -123.8786 336° Northwest 437 503 32,000 50 Climbing Oakland Center
Wed 04:44:56 PM 39.3756 -123.9364 332° Northwest 437 503 31,900  Descending Oakland Center
Wed 04:45:37 PM 39.4500 -123.9878 334° Northwest 435 501 32,000 59 Climbing Seattle Center
Wed 04:46:38 PM 39.5589 -124.0564 334° Northwest 435 501 32,000  Level Seattle Center
Wed 04:47:39 PM 39.6678 -124.1267 334° Northwest 436 502 32,000 390 Level Seattle Center
Wed 04:48:41 PM 39.7800 -124.1978 334° Northwest 442 509 32,800 488 Climbing Seattle Center
Wed 04:49:42 PM 39.8897 -124.2689 334° Northwest 442 509 33,000 49 Climbing Seattle Center
Wed 04:50:43 PM 39.9978 -124.3383 334° Northwest 437 503 32,900 -787 Descending Seattle Center
Wed 04:51:44 PM 40.1064 -124.4083 334° Northwest 432 497 31,400 -934 Descending Seattle Center
Wed 04:52:45 PM 40.2200 -124.4822 334° Northwest 444 511 31,000 -195 Descending Seattle Center
Wed 04:53:47 PM 40.3597 -124.5731 333° Northwest 458 527 31,000  Level Seattle Center
Wed 04:54:48 PM 40.4736 -124.6492 333° Northwest 457 526 31,000  Level Seattle Center
Wed 04:55:49 PM 40.5861 -124.7236 333° Northwest 453 521 31,000  Level Seattle Center
Wed 04:56:50 PM 40.6981 -124.7975 333° Northwest 451 519 31,000  Level Seattle Center
Wed 04:57:51 PM 40.8078 -124.8706 333° Northwest 446 513 31,000  Level Seattle Center
Wed 04:58:53 PM 40.9164 -124.9428 333° Northwest 440 506 31,000  Level Seattle Center
Wed 04:59:54 PM 41.0253 -125.0167 333° Northwest 439 505 31,000  Level Seattle Center
Wed 05:00:55 PM 41.1333 -125.0897 333° Northwest 438 504 31,000  Level Seattle Center
Wed 05:01:56 PM 41.2414 -125.1619 334° Northwest 437 503 31,000  Level Seattle Center
Wed 05:02:57 PM 41.3519 -125.2325 333° Northwest 438 504 31,000  Level Seattle Center
Wed 05:03:58 PM 41.4600 -125.3069 333° Northwest 438 504 31,000  Level Seattle Center
Wed 05:05:00 PM 41.5683 -125.3806 333° Northwest 438 504 31,000  Level Seattle Center
Wed 05:06:01 PM 41.6983 -125.4703 332° Northwest 438 504 31,000  Level Seattle Center
Wed 05:07:02 PM 41.8056 -125.5453 333° Northwest 436 502 31,000  Level Seattle Center
Wed 05:08:03 PM 41.9144 -125.6192 333° Northwest 438 504 31,000  Level Seattle Center
Wed 05:09:04 PM 42.0233 -125.6942 333° Northwest 439 505 31,000 780 Level Seattle Center
Wed 05:10:06 PM 42.1328 -125.7703 332° Northwest 441 507 32,600 1,463 Climbing Seattle Center
Wed 05:11:07 PM 42.2333 -125.8419 333° Northwest 418 481 34,000 689 Climbing Seattle Center
Wed 05:12:08 PM 42.3325 -125.9114 333° Northwest 403 464 34,000  Level Seattle Center
Wed 05:13:09 PM 42.4317 -125.9800 332° Northwest 401 461 34,000  Level Seattle Center
Wed 05:14:10 PM 42.5308 -126.0506 333° Northwest 401 461 34,000  Level Seattle Center
Wed 05:15:12 PM 42.6297 -126.1203 332° Northwest 402 463 34,000  Level Seattle Center
Wed 05:16:13 PM 42.7481 -126.2047 334° Northwest 401 461 34,000  Level Seattle Center
Wed 05:17:14 PM 42.8481 -126.2714 336° Northwest 401 461 34,000  Level Seattle Center
Wed 05:18:15 PM 42.9350 -126.3253 335° Northwest 402 463 34,000  Level Seattle Center
Wed 05:19:17 PM 43.0525 -126.3997 335° Northwest 403 464 34,000  Level Seattle Center
Wed 05:23:16 PM 43.4333 -126.6500 334° Northwest 435 501 34,000  Level Oakland Oceanic (ODAPS)
Wed 05:49:44 PM 46.3833 -128.7500 331° Northwest 461 531 34,000  Level Oakland Oceanic (ODAPS)
Wed 05:58:37 PM 47.3500 -129.5333 332° Northwest 460 529 34,000  Level Vancouver Center
Wed 05:59:37 PM 47.5000 -129.6500 330° Northwest 500 575 34,000  Level Vancouver Center
Wed 06:00:37 PM 47.6167 -129.7500 334° Northwest 470 541 34,000  Level Vancouver Center
Wed 06:01:37 PM 47.7333 -129.8333 331° Northwest 470 541 34,000  Level Vancouver Center
Wed 06:02:37 PM 47.8333 -129.9167 334° Northwest 470 541 34,000  Level Vancouver Center
Wed 06:03:36 PM 47.9500 -130.0000 330° Northwest 470 541 34,000  Level Vancouver Center
Wed 06:04:36 PM 48.0667 -130.1000 326° Northwest 470 541 34,000  Level Vancouver Center
Wed 06:05:36 PM 48.1833 -130.2167 335° Northwest 470 541 34,000  Level Vancouver Center
Wed 06:06:36 PM 48.3000 -130.3000 330° Northwest 470 541 34,000  Level Vancouver Center
Wed 06:07:36 PM 48.4167 -130.4000 335° Northwest 470 541 34,000  Level Vancouver Center
Wed 06:08:36 PM 48.5333 -130.4833 331° Northwest 470 541 34,000  Level Vancouver Center
Wed 06:09:36 PM 48.6333 -130.5667 327° Northwest 470 541 34,000  Level Vancouver Center
Wed 06:10:36 PM 48.7667 -130.7000 335° Northwest 470 541 34,000  Level Vancouver Center
Wed 06:11:36 PM 48.8833 -130.7833 327° Northwest 470 541 34,000  Level Vancouver Center
Wed 06:12:36 PM 48.9833 -130.8833 335° Northwest 470 541 34,000  Level Vancouver Center
Wed 06:13:36 PM 49.1000 -130.9667 331° Northwest 470 541 34,000  Level Vancouver Center
Wed 06:14:36 PM 49.2167 -131.0667 331° Northwest 470 541 34,000  Level Vancouver Center
Wed 06:15:36 PM 49.3167 -131.1500 331° Northwest 460 529 34,000  Level Vancouver Center
Wed 06:16:36 PM 49.4333 -131.2500 334° Northwest 470 541 34,000  Level Vancouver Center
Wed 06:17:36 PM 49.5667 -131.3500 323° Northwest 470 541 34,000  Level Vancouver Center
Wed 06:18:36 PM 49.6667 -131.4667 331° Northwest 470 541 34,000  Level Vancouver Center
Wed 06:19:36 PM 49.7833 -131.5667 327° Northwest 470 541 34,000  Level Vancouver Center
Wed 06:20:36 PM 49.8833 -131.6667 334° Northwest 470 541 34,000  Level Vancouver Center
Wed 06:21:36 PM 50.0167 -131.7667 335° Northwest 480 552 34,000  Level Vancouver Center
Wed 06:22:36 PM 50.1333 -131.8500 327° Northwest 480 552 34,000  Level Vancouver Center
Wed 06:23:36 PM 50.2333 -131.9500 324° Northwest 480 552 34,000  Level Vancouver Center
Wed 06:24:36 PM 50.3500 -132.0833 323° Northwest 470 541 34,000  Level Vancouver Center
Wed 06:25:36 PM 50.4500 -132.2000 335° Northwest 480 552 34,000  Level Vancouver Center
Wed 06:26:36 PM 50.5833 -132.3000 332° Northwest 480 552 34,000  Level Vancouver Center
Wed 06:27:36 PM 50.7000 -132.4000 320° Northwest 480 552 34,000  Level Vancouver Center
Wed 06:28:36 PM 50.8000 -132.5333 332° Northwest 480 552 34,000  Level Vancouver Center
Wed 06:29:36 PM 50.9167 -132.6333 324° Northwest 480 552 34,000  Level Vancouver Center
Wed 06:30:36 PM 51.0167 -132.7500 331° Northwest 460 529 34,000  Level Vancouver Center
Wed 06:31:36 PM 51.1500 -132.8667 319° Northwest 480 552 34,000  Level Vancouver Center
Wed 06:32:36 PM 51.2333 -132.9833 331° Northwest 480 552 34,000  Level Vancouver Center
Wed 06:33:36 PM 51.3667 -133.1000 324° Northwest 480 552 34,000  Level Vancouver Center
Wed 06:34:36 PM 51.4667 -133.2167 328° Northwest 480 552 34,000  Level Vancouver Center
Wed 06:35:36 PM 51.5833 -133.3333 324° Northwest 470 541 34,000  Level Vancouver Center
Wed 06:36:36 PM 51.6833 -133.4500 328° Northwest 480 552 34,000  Level Vancouver Center
Wed 06:37:36 PM 51.8000 -133.5667 325° Northwest 470 541 34,000  Level Vancouver Center
Wed 06:38:36 PM 51.9167 -133.7000 324° Northwest 470 541 34,000  Level Vancouver Center
Wed 06:39:36 PM 52.0000 -133.8000 328° Northwest 470 541 34,000  Level Vancouver Center
Wed 06:40:36 PM 52.1333 -133.9333 324° Northwest 470 541 34,000  Level Vancouver Center
Wed 06:41:36 PM 52.2333 -134.0500 332° Northwest 470 541 34,000  Level Vancouver Center
Wed 06:42:36 PM 52.3500 -134.1500 321° Northwest 470 541 34,000  Level Vancouver Center
Wed 06:43:36 PM 52.4500 -134.2833 329° Northwest 470 541 34,000  Level Vancouver Center
Wed 06:44:36 PM 52.5667 -134.4000 321° Northwest 460 529 34,000  Level Vancouver Center
Wed 06:45:36 PM 52.6667 -134.5333 349° North 460 529 34,000  Level Vancouver Center
Wed 06:46:31 PM 52.7667 -134.5667 325° Northwest 460 529 34,000  Level Anchorage Center
Wed 06:47:31 PM 52.8833 -134.7000 325° Northwest 470 541 34,000  Level Anchorage Center
Wed 06:48:32 PM 52.9833 -134.8167 317° Northwest 460 529 34,000  Level Anchorage Center
Wed 06:49:36 PM 53.1000 -135.0000 325° Northwest 470 541 34,000  Level Vancouver Center
Wed 06:50:36 PM 53.2000 -135.1167 321° Northwest 470 541 34,000  Level Vancouver Center
Wed 06:51:36 PM 53.3000 -135.2500 329° Northwest 470 541 34,000  Level Vancouver Center
Wed 06:52:36 PM 53.4167 -135.3667 318° Northwest 470 541 34,000  Level Vancouver Center
Wed 06:53:36 PM 53.5167 -135.5167 346° North 470 541 34,000  Level Vancouver Center
Wed 06:54:34 PM 53.6333 -135.5667 315° West 470 541 34,000  Level Anchorage Center
Wed 06:55:36 PM 53.7333 -135.7333 319° Northwest 470 541 34,000  Level Vancouver Center
Wed 06:56:36 PM 53.8333 -135.8833 341° North 470 541 34,000  Level Vancouver Center
Wed 06:57:35 PM 53.9500 -135.9500 322° Northwest 470 541 34,000  Level Anchorage Center
Wed 06:58:36 PM 54.0500 -136.0833 319° Northwest 470 541 34,000  Level Anchorage Center
Wed 06:59:36 PM 54.1500 -136.2333 319° Northwest 470 541 34,000  Level Anchorage Center
Wed 07:00:36 PM 54.2500 -136.3833 314° West 470 541 34,000  Level Anchorage Center
Wed 07:01:37 PM 54.3333 -136.5333 311° West 470 541 34,000  Level Anchorage Center
Wed 07:03:36 PM 54.5167 -136.9000 323° Northwest 470 541 34,000  Level Vancouver Center
Wed 07:04:36 PM 54.6333 -137.0500 311° West 470 541 34,000  Level Vancouver Center
Wed 07:05:36 PM 54.7167 -137.2167 319° Northwest 480 552 34,000  Level Vancouver Center
Wed 07:06:36 PM 54.8167 -137.3667 330° Northwest 480 552 34,000  Level Vancouver Center
Wed 07:07:39 PM 54.9167 -137.4667 319° Northwest 470 541 34,000  Level Anchorage Center
Wed 07:08:39 PM 55.0167 -137.6167 307° West 470 541 34,000  Level Anchorage Center
Wed 07:09:36 PM 55.1167 -137.8500 314° West 480 552 34,000  Level Vancouver Center
Wed 07:10:36 PM 55.2000 -138.0000 320° Northwest 480 552 34,000  Level Vancouver Center
Wed 07:11:36 PM 55.3000 -138.1500 314° West 480 552 34,000  Level Vancouver Center
Wed 07:12:36 PM 55.4000 -138.3333 317° Northwest 480 552 34,000  Level Vancouver Center
Wed 07:13:36 PM 55.5000 -138.5000 315° West 480 552 34,000  Level Vancouver Center
Wed 07:14:36 PM 55.5833 -138.6500 309° West 480 552 34,000  Level Vancouver Center
Wed 07:15:36 PM 55.6667 -138.8333 317° Northwest 470 541 34,000  Level Vancouver Center
Wed 07:16:36 PM 55.7667 -139.0000 315° West 470 541 34,000  Level Vancouver Center
Wed 07:17:36 PM 55.8500 -139.1500 320° Northwest 470 541 34,000  Level Vancouver Center
Wed 07:18:36 PM 55.9500 -139.3000 309° West 470 541 34,000  Level Vancouver Center
Wed 07:19:36 PM 56.0167 -139.4500 317° Northwest 470 541 34,000  Level Vancouver Center
Wed 07:20:36 PM 56.1167 -139.6167 315° West 460 529 34,000  Level Vancouver Center
Wed 07:21:36 PM 56.2000 -139.7667 317° Northwest 460 529 34,000  Level Vancouver Center
Wed 07:22:36 PM 56.3000 -139.9333 315° West 470 541 34,000  Level Vancouver Center
Wed 07:23:36 PM 56.3833 -140.0833 307° West 470 541 34,000  Level Vancouver Center
Wed 07:24:36 PM 56.4667 -140.2833 317° Northwest 470 541 34,000  Level Vancouver Center
Wed 07:25:36 PM 56.5667 -140.4500 318° Northwest 480 552 34,000  Level Vancouver Center
Wed 07:26:36 PM 56.6667 -140.6167 315° West 470 541 34,000  Level Vancouver Center
Wed 07:27:36 PM 56.7500 -140.7667 307° West 470 541 34,000  Level Vancouver Center
Wed 07:28:36 PM 56.8333 -140.9667 335° Northwest 470 541 34,000  Level Vancouver Center
Wed 07:29:47 PM 56.9500 -141.0667 315° West 460 529 34,000  Level Anchorage Center
Wed 07:30:47 PM 57.0500 -141.2500 313° West 460 529 34,000  Level Anchorage Center
Wed 07:31:48 PM 57.1333 -141.4167 313° West 450 518 34,000  Level Anchorage Center
Wed 07:32:48 PM 57.2167 -141.5833 313° West 450 518 34,000  Level Anchorage Center
Wed 07:33:49 PM 57.3000 -141.7500 317° Northwest 450 518 34,000  Level Anchorage Center
Wed 07:34:49 PM 57.4167 -141.9500 310° West 450 518 34,000  Level Anchorage Center
Wed 07:35:49 PM 57.5000 -142.1333 313° West 450 518 34,000  Level Anchorage Center
Wed 07:36:50 PM 57.5833 -142.3000 310° West 450 518 34,000  Level Anchorage Center
Wed 07:37:50 PM 57.6667 -142.4833 313° West 450 518 34,000  Level Anchorage Center
Wed 07:38:50 PM 57.7500 -142.6500 310° West 460 529 34,000  Level Anchorage Center
Wed 07:39:51 PM 57.8167 -142.8000 313° West 450 518 34,000  Level Anchorage Center
Wed 07:40:51 PM 57.9000 -142.9667 316° Northwest 450 518 34,000  Level Anchorage Center
Wed 07:41:52 PM 58.0167 -143.1833 311° West 460 529 34,000  Level Anchorage Center
Wed 07:42:52 PM 58.1000 -143.3667 311° West 450 518 34,000  Level Anchorage Center
Wed 07:43:52 PM 58.1833 -143.5500 311° West 460 529 34,000  Level Anchorage Center
Wed 07:44:53 PM 58.2667 -143.7333 311° West 460 529 34,000  Level Anchorage Center
Wed 07:45:53 PM 58.3500 -143.9167 311° West 450 518 34,000  Level Anchorage Center
Wed 07:46:53 PM 58.4333 -144.1000 311° West 460 529 34,000  Level Anchorage Center
Wed 07:47:54 PM 58.5167 -144.2833 311° West 460 529 34,000  Level Anchorage Center
Wed 07:48:54 PM 58.6000 -144.4667 309° West 460 529 34,000  Level Anchorage Center
Wed 07:49:55 PM 58.6833 -144.6667 317° Northwest 460 529 34,000  Level Anchorage Center
Wed 07:50:55 PM 58.7833 -144.8500 309° West 470 541 34,000  Level Anchorage Center
Wed 07:51:55 PM 58.8667 -145.0500 311° West 460 529 34,000  Level Anchorage Center
Wed 07:52:55 PM 58.9500 -145.2333 309° West 460 529 34,000  Level Anchorage Center
Wed 07:53:56 PM 59.0333 -145.4333 309° West 470 541 34,000  Level Anchorage Center
Wed 07:54:56 PM 59.1167 -145.6333 312° West 470 541 34,000  Level Anchorage Center
Wed 07:55:56 PM 59.2000 -145.8167 309° West 470 541 34,000  Level Anchorage Center
Wed 07:56:57 PM 59.2833 -146.0167 308° West 470 541 34,000  Level Anchorage Center
Wed 07:57:57 PM 59.3500 -146.1833 310° West 480 552 34,000  Level Anchorage Center
Wed 07:58:57 PM 59.4500 -146.4167 315° West 450 518 34,000  Level Anchorage Center
Wed 07:59:58 PM 59.5333 -146.5833 320° Northwest 470 541 34,000  Level Anchorage Center
Wed 08:00:58 PM 59.6333 -146.7500 312° West 470 541 34,000  Level Anchorage Center
Wed 08:01:59 PM 59.7167 -146.9333 317° Northwest 470 541 34,000  Level Anchorage Center
Wed 08:02:59 PM 59.8167 -147.1167 312° West 470 541 34,000  Level Anchorage Center
Wed 08:03:59 PM 59.9000 -147.3000 318° Northwest 470 541 34,000  Level Anchorage Center
Wed 08:05:00 PM 60.0000 -147.4833 312° West 460 529 34,000  Level Anchorage Center
Wed 08:06:00 PM 60.0833 -147.6667 318° Northwest 470 541 34,000  Level Anchorage Center
Wed 08:07:00 PM 60.1833 -147.8500 311° West 460 529 34,000  Level Anchorage Center
Wed 08:08:01 PM 60.2833 -148.0833 318° Northwest 460 529 34,000  Level Anchorage Center
Wed 08:09:01 PM 60.3833 -148.2667 310° West 470 541 34,000  Level Anchorage Center
Wed 08:10:02 PM 60.4667 -148.4667 319° Northwest 470 541 34,000  Level Anchorage Center
Wed 08:11:02 PM 60.5500 -148.6167 310° West 470 541 34,000  Level Anchorage Center
Wed 08:12:02 PM 60.6333 -148.8167 318° Northwest 460 529 34,000  Level Anchorage Center
Wed 08:13:03 PM 60.7500 -149.0333 311° West 460 529 34,000  Level Anchorage Center
Wed 08:14:03 PM 60.8333 -149.2333 311° West 460 529 34,000  Level Anchorage Center
Wed 08:15:03 PM 60.9167 -149.4333 318° Northwest 460 529 34,000  Level Anchorage Center
Wed 08:16:04 PM 61.0167 -149.6167 311° West 470 541 34,000  Level Anchorage Center
Wed 08:17:04 PM 61.1000 -149.8167 311° West 460 529 34,000  Level Anchorage Center
Wed 08:18:04 PM 61.1833 -150.0167 299° West 470 541 34,000  Level Anchorage Center
Wed 08:19:05 PM 61.2500 -150.2667 301° West 460 529 34,000  Level Anchorage Center
Wed 08:20:05 PM 61.3167 -150.5000 305° West 460 529 34,000  Level Anchorage Center
Wed 08:21:06 PM 61.3833 -150.7000 301° West 450 518 34,000  Level Anchorage Center
Wed 08:22:06 PM 61.4500 -150.9333 303° West 450 518 34,000  Level Anchorage Center
Wed 08:23:06 PM 61.5167 -151.1500 301° West 460 529 34,000  Level Anchorage Center
Wed 08:24:07 PM 61.5833 -151.3833 301° West 450 518 34,000  Level Anchorage Center
Wed 08:25:07 PM 61.6500 -151.6167 301° West 450 518 34,000  Level Anchorage Center
Wed 08:26:08 PM 61.7167 -151.8500 294° West 460 529 34,000  Level Anchorage Center
Wed 08:27:08 PM 61.7667 -152.0833 302° West 450 518 34,000  Level Anchorage Center
Wed 08:28:08 PM 61.8500 -152.3667 303° West 470 541 34,000  Level Anchorage Center
Wed 08:29:09 PM 61.9167 -152.5833 296° West 460 529 34,000  Level Anchorage Center
Wed 08:30:09 PM 61.9667 -152.8000 301° West 460 529 34,000  Level Anchorage Center
Wed 08:31:09 PM 62.0333 -153.0333 301° West 460 529 34,000  Level Anchorage Center
Wed 08:32:10 PM 62.1000 -153.2667 297° West 460 529 34,000  Level Anchorage Center
Wed 08:33:10 PM 62.1667 -153.5500 302° West 450 518 34,000  Level Anchorage Center
Wed 08:34:10 PM 62.2333 -153.7833 302° West 460 529 34,000  Level Anchorage Center
Wed 08:35:11 PM 62.3000 -154.0167 302° West 460 529 34,000  Level Anchorage Center
Wed 08:36:11 PM 62.3667 -154.2500 300° West 450 518 34,000  Level Anchorage Center
Wed 08:37:12 PM 62.4333 -154.5000 295° West 460 529 34,000  Level Anchorage Center
Wed 08:38:12 PM 62.4833 -154.7333 300° West 460 529 34,000  Level Anchorage Center
Wed 08:39:12 PM 62.5500 -154.9833 302° West 450 518 34,000  Level Anchorage Center
Wed 08:40:12 PM 62.6167 -155.2167 300° West 460 529 34,000  Level Anchorage Center
Wed 08:41:13 PM 62.6833 -155.4667 294° West 460 529 34,000  Level Anchorage Center
Wed 08:42:13 PM 62.7333 -155.7167 302° West 460 529 34,000  Level Anchorage Center
Wed 08:43:14 PM 62.8000 -155.9500 297° West 460 529 34,000  Level Anchorage Center
Wed 08:44:14 PM 62.8500 -156.1667 300° West 470 541 34,000  Level Anchorage Center
Wed 08:45:14 PM 62.9167 -156.4167 294° West 440 506 34,000  Level Anchorage Center
Wed 08:46:15 PM 62.9667 -156.6667 301° West 450 518 34,000  Level Anchorage Center
Wed 08:47:15 PM 63.0333 -156.9167 294° West 460 529 34,000  Level Anchorage Center
Wed 08:48:15 PM 63.0833 -157.1667 301° West 460 529 34,000  Level Anchorage Center
Wed 08:49:16 PM 63.1500 -157.4167 294° West 460 529 34,000  Level Anchorage Center
Wed 08:50:16 PM 63.2000 -157.6667 296° West 450 518 34,000  Level Anchorage Center
Wed 08:51:17 PM 63.2667 -157.9667 301° West 450 518 34,000  Level Anchorage Center
Wed 08:52:17 PM 63.3333 -158.2167 294° West 450 518 34,000  Level Anchorage Center
Wed 08:53:17 PM 63.3833 -158.4667 301° West 450 518 34,000  Level Anchorage Center
Wed 08:54:18 PM 63.4500 -158.7167 294° West 460 529 34,000  Level Anchorage Center
Wed 08:55:18 PM 63.5000 -158.9667 294° West 450 518 34,000  Level Anchorage Center
Wed 08:56:19 PM 63.5500 -159.2167 299° West 440 506 34,000  Level Anchorage Center
Wed 08:57:19 PM 63.6167 -159.4833 293° West 460 529 34,000  Level Anchorage Center
Wed 08:58:19 PM 63.6667 -159.7500 294° West 450 518 34,000  Level Anchorage Center
Wed 08:59:20 PM 63.7167 -160.0000 293° West 460 529 34,000  Level Anchorage Center
Wed 09:00:20 PM 63.7667 -160.2667 294° West 450 518 34,000  Level Anchorage Center
Wed 09:01:20 PM 63.8167 -160.5167 293° West 450 518 34,000  Level Anchorage Center
Wed 09:02:21 PM 63.8667 -160.7833 293° West 460 529 34,000  Level Anchorage Center
Wed 09:03:21 PM 63.9167 -161.0500 293° West 450 518 34,000  Level Anchorage Center
Wed 09:04:22 PM 63.9667 -161.3167 300° West 460 529 34,000  Level Anchorage Center
Wed 09:05:22 PM 64.0333 -161.5833 293° West 450 518 34,000  Level Anchorage Center
Wed 09:06:22 PM 64.0833 -161.8500 292° West 450 518 34,000  Level Anchorage Center
Wed 09:07:22 PM 64.1333 -162.1333 293° West 460 529 34,000  Level Anchorage Center
Wed 09:08:23 PM 64.1833 -162.4000 293° West 460 529 34,000  Level Anchorage Center
Wed 09:09:23 PM 64.2333 -162.6667 286° West 450 518 34,000  Level Anchorage Center
Wed 09:10:24 PM 64.2667 -162.9333 292° West 460 529 34,000 50 Level Anchorage Center
Wed 09:11:24 PM 64.3167 -163.2167 294° West 460 529 34,100 600 Climbing Anchorage Center
Wed 09:12:24 PM 64.3667 -163.4833 294° West 450 518 35,200 942 Climbing Anchorage Center
Wed 09:13:25 PM 64.4167 -163.7500 292° West 460 529 36,000 397 Climbing Anchorage Center
Wed 09:14:25 PM 64.4667 -164.0333 294° West 460 529 36,000  Level Anchorage Center
Wed 09:15:26 PM 64.5167 -164.3000 285° West 450 518 36,000  Level Anchorage Center
Wed 09:16:26 PM 64.5500 -164.5833 292° West 450 518 36,000  Level Anchorage Center
Wed 09:17:26 PM 64.6000 -164.8667 286° West 460 529 36,000  Level Anchorage Center
Wed 09:18:26 PM 64.6333 -165.1333 297° West 450 518 36,000  Level Anchorage Center
Wed 09:19:26 PM 64.6833 -165.3667 289° West 460 529 36,000  Level Anchorage Center
Wed 09:20:27 PM 64.7333 -165.7000 286° West 460 529 36,000  Level Anchorage Center
Wed 09:21:27 PM 64.7667 -165.9833 293° West 460 529 36,000  Level Anchorage Center
Wed 09:22:27 PM 64.8167 -166.2667 286° West 460 529 36,000  Level Anchorage Center
Wed 09:23:28 PM 64.8500 -166.5500 292° West 460 529 36,000  Level Anchorage Center
Wed 09:24:28 PM 64.9000 -166.8500 286° West 460 529 36,000  Level Anchorage Center
Wed 09:25:29 PM 64.9333 -167.1333 293° West 460 529 36,000  Level Anchorage Center
Wed 09:26:29 PM 64.9833 -167.4167 285° West 460 529 36,000  Level Anchorage Center
Wed 09:27:30 PM 65.0167 -167.7167 286° West 460 529 36,000  Level Anchorage Center
Wed 09:28:30 PM 65.0500 -168.0000 292° West 450 518 36,000  Level Anchorage Center
Wed 09:29:30 PM 65.1000 -168.3000 285° West 460 529 36,000  Level Anchorage Center
Wed 09:30:31 PM 65.1333 -168.6000 286° West 460 529 36,000  Level Anchorage Center
Wed 09:31:31 PM 65.1667 -168.8833 280° West 460 529 36,000  Level Anchorage Center
Wed 09:39:15 PM 65.3170 -171.2141 279° West  Level FlightAware Approximate
Wed 09:40:15 PM 65.3362 -171.5170 278° West  Level FlightAware Approximate
Wed 09:41:15 PM 65.3547 -171.8204 278° West  Level FlightAware Approximate
Wed 09:42:15 PM 65.3725 -172.1242 278° West  Level FlightAware Approximate
Wed 09:43:15 PM 65.3898 -172.4284 278° West  Level FlightAware Approximate
Wed 09:44:15 PM 65.4065 -172.7330 277° West  Level FlightAware Approximate
Wed 09:45:15 PM 65.4225 -173.0379 277° West  Level FlightAware Approximate
Wed 09:46:15 PM 65.4380 -173.3433 277° West  Level FlightAware Approximate
Wed 09:47:15 PM 65.4528 -173.6490 277° West  Level FlightAware Approximate
Wed 09:48:15 PM 65.4670 -173.9550 276° West  Level FlightAware Approximate
Wed 09:49:15 PM 65.4806 -174.2614 276° West  Level FlightAware Approximate
Wed 09:50:15 PM 65.4935 -174.5680 276° West  Level FlightAware Approximate
Wed 09:51:15 PM 65.5059 -174.8750 275° West  Level FlightAware Approximate
Wed 09:52:15 PM 65.5176 -175.1822 275° West  Level FlightAware Approximate
Wed 09:53:15 PM 65.5287 -175.4897 275° West  Level FlightAware Approximate
Wed 09:54:15 PM 65.5392 -175.7975 275° West  Level FlightAware Approximate
Wed 09:55:15 PM 65.5490 -176.1055 274° West  Level FlightAware Approximate
Wed 09:56:15 PM 65.5583 -176.4138 274° West  Level FlightAware Approximate
Wed 09:57:15 PM 65.5668 -176.7222 274° West  Level FlightAware Approximate
Wed 09:58:15 PM 65.5748 -177.0309 273° West  Level FlightAware Approximate
Wed 09:59:15 PM 65.5822 -177.3397 273° West  Level FlightAware Approximate
Wed 10:00:15 PM 65.5889 -177.6487 273° West  Level FlightAware Approximate
Wed 10:01:15 PM 65.5950 -177.9578 273° West  Level FlightAware Approximate
Wed 10:02:15 PM 65.6005 -178.2671 272° West  Level FlightAware Approximate
Wed 10:03:15 PM 65.6053 -178.5765 272° West  Level FlightAware Approximate
Wed 10:04:15 PM 65.6095 -178.8860 272° West  Level FlightAware Approximate
Wed 10:05:15 PM 65.6131 -179.1956 263° West  Level FlightAware Approximate
Wed 10:06:15 PM 65.5977 -179.5030 263° West  Level FlightAware Approximate
Wed 10:07:15 PM 65.5816 -179.8100 263° West  Level FlightAware Approximate
Wed 10:08:15 PM 65.5649 179.8833 262° West  Level FlightAware Approximate
Wed 10:09:15 PM 65.5476 179.5771 262° West  Level FlightAware Approximate
Wed 10:10:15 PM 65.5297 179.2713 262° West  Level FlightAware Approximate
Wed 10:11:15 PM 65.5112 178.9659 262° West  Level FlightAware Approximate
Wed 10:12:15 PM 65.4920 178.6609 261° West  Level FlightAware Approximate
Wed 10:13:15 PM 65.4723 178.3564 261° West  Level FlightAware Approximate
Wed 10:14:15 PM 65.4519 178.0524 261° West  Level FlightAware Approximate
Wed 10:15:15 PM 65.4310 177.7489 260° West  Level FlightAware Approximate
Wed 10:16:15 PM 65.4094 177.4458 260° West  Level FlightAware Approximate
Wed 10:17:15 PM 65.3872 177.1432 260° West  Level FlightAware Approximate
Wed 10:18:15 PM 65.3644 176.8412 260° West  Level FlightAware Approximate
Wed 10:19:15 PM 65.3410 176.5397 259° West  Level FlightAware Approximate
Wed 10:20:15 PM 65.3170 176.2387 259° West  Level FlightAware Approximate
Wed 10:21:15 PM 65.2924 175.9383 259° West  Level FlightAware Approximate
Wed 10:22:15 PM 65.2673 175.6385 259° West  Level FlightAware Approximate
Wed 10:23:15 PM 65.2415 175.3392 258° West  Level FlightAware Approximate
Wed 10:24:15 PM 65.2151 175.0405 258° West  Level FlightAware Approximate
Wed 10:25:15 PM 65.1881 174.7424 258° West  Level FlightAware Approximate
Wed 10:26:15 PM 65.1606 174.4450 257° West  Level FlightAware Approximate
Wed 10:27:15 PM 65.1325 174.1482 257° West  Level FlightAware Approximate
Wed 10:28:15 PM 65.1037 173.8520 257° West  Level FlightAware Approximate
Wed 10:29:15 PM 65.0744 173.5564 257° West  Level FlightAware Approximate
Wed 10:30:15 PM 65.0445 173.2615 254° West  Level FlightAware Approximate
Wed 10:31:15 PM 65.0095 172.9702 254° West  Level FlightAware Approximate
Wed 10:32:15 PM 64.9739 172.6796 254° West  Level FlightAware Approximate
Wed 10:33:15 PM 64.9378 172.3898 253° West  Level FlightAware Approximate
Wed 10:34:15 PM 64.9011 172.1007 253° West  Level FlightAware Approximate
Wed 10:35:15 PM 64.8638 171.8125 253° West  Level FlightAware Approximate
Wed 10:36:15 PM 64.8260 171.5251 253° West  Level FlightAware Approximate
Wed 10:37:15 PM 64.7876 171.2385 252° West  Level FlightAware Approximate
Wed 10:38:15 PM 64.7487 170.9527 252° West  Level FlightAware Approximate
Wed 10:39:15 PM 64.7092 170.6678 252° West  Level FlightAware Approximate
Wed 10:40:15 PM 64.6692 170.3836 252° West  Level FlightAware Approximate
Wed 10:41:15 PM 64.6286 170.1004 251° West  Level FlightAware Approximate
Wed 10:42:15 PM 64.5875 169.8179 251° West  Level FlightAware Approximate
Wed 10:43:15 PM 64.5458 169.5364 251° West  Level FlightAware Approximate
Wed 10:44:15 PM 64.5036 169.2557 251° West  Level FlightAware Approximate
Wed 10:45:15 PM 64.4609 168.9758 250° West  Level FlightAware Approximate
Wed 10:46:15 PM 64.4177 168.6969 250° West  Level FlightAware Approximate
Wed 10:47:15 PM 64.3739 168.4188 250° West  Level FlightAware Approximate
Wed 10:48:15 PM 64.3296 168.1416 250° West  Level FlightAware Approximate
Wed 10:49:15 PM 64.2848 167.8653 249° West  Level FlightAware Approximate
Wed 10:50:15 PM 64.2394 167.5899 249° West  Level FlightAware Approximate
Wed 10:51:15 PM 64.1936 167.3154 249° West  Level FlightAware Approximate
Wed 10:52:15 PM 64.1472 167.0419 249° West  Level FlightAware Approximate
Wed 10:53:15 PM 64.1003 166.7692 248° West  Level FlightAware Approximate
Wed 10:54:15 PM 64.0530 166.4975 248° West  Level FlightAware Approximate
Wed 10:55:15 PM 64.0051 166.2267 248° West  Level FlightAware Approximate
Wed 10:56:15 PM 63.9567 165.9568 248° West  Level FlightAware Approximate
Wed 10:57:15 PM 63.9078 165.6879 247° West  Level FlightAware Approximate
Wed 10:58:15 PM 63.8584 165.4199 247° West  Level FlightAware Approximate
Wed 10:59:15 PM 63.8085 165.1529 247° West  Level FlightAware Approximate
Wed 11:00:15 PM 63.7581 164.8868 246° West  Level FlightAware Approximate
Wed 11:01:15 PM 63.7063 164.6225 246° West  Level FlightAware Approximate
Wed 11:02:15 PM 63.6540 164.3593 246° West  Level FlightAware Approximate
Wed 11:03:15 PM 63.6013 164.0970 246° West  Level FlightAware Approximate
Wed 11:04:15 PM 63.5480 163.8357 245° Southwest  Level FlightAware Approximate
Wed 11:05:15 PM 63.4943 163.5754 245° Southwest  Level FlightAware Approximate
Wed 11:06:15 PM 63.4402 163.3161 245° Southwest  Level FlightAware Approximate
Wed 11:07:15 PM 63.3855 163.0577 244° Southwest  Level FlightAware Approximate
Wed 11:08:15 PM 63.3289 162.8020 244° Southwest  Level FlightAware Approximate
Wed 11:09:15 PM 63.2718 162.5473 243° Southwest  Level FlightAware Approximate
Wed 11:10:15 PM 63.2142 162.2936 243° Southwest  Level FlightAware Approximate
Wed 11:11:15 PM 63.1562 162.0409 243° Southwest  Level FlightAware Approximate
Wed 11:12:15 PM 63.0978 161.7892 243° Southwest  Level FlightAware Approximate
Wed 11:13:15 PM 63.0389 161.5386 242° Southwest  Level FlightAware Approximate
Wed 11:14:15 PM 62.9795 161.2890 242° Southwest  Level FlightAware Approximate
Wed 11:15:15 PM 62.9198 161.0403 242° Southwest  Level FlightAware Approximate
Wed 11:16:15 PM 62.8596 160.7927 242° Southwest  Level FlightAware Approximate
Wed 11:17:15 PM 62.7989 160.5461 242° Southwest  Level FlightAware Approximate
Wed 11:18:15 PM 62.7379 160.3006 241° Southwest  Level FlightAware Approximate
Wed 11:19:15 PM 62.6764 160.0560 241° Southwest  Level FlightAware Approximate
Wed 11:20:15 PM 62.6145 159.8124 241° Southwest  Level FlightAware Approximate
Wed 11:21:15 PM 62.5521 159.5699 241° Southwest  Level FlightAware Approximate
Wed 11:22:15 PM 62.4894 159.3284 241° Southwest  Level FlightAware Approximate
Wed 11:23:15 PM 62.4262 159.0879 240° Southwest  Level FlightAware Approximate
Wed 11:24:15 PM 62.3626 158.8484 240° Southwest  Level FlightAware Approximate
Wed 11:25:15 PM 62.2986 158.6100 267° West  Level FlightAware Approximate
Wed 11:26:15 PM 62.2923 158.3396 238° Southwest  Level FlightAware Approximate
Wed 11:27:15 PM 62.2252 158.1056 238° Southwest  Level FlightAware Approximate
Wed 11:28:15 PM 62.1578 157.8727 238° Southwest  Level FlightAware Approximate
Wed 11:29:15 PM 62.0900 157.6407 238° Southwest  Level FlightAware Approximate
Wed 11:30:15 PM 62.0217 157.4099 238° Southwest  Level FlightAware Approximate
Wed 11:31:15 PM 61.9531 157.1801 237° Southwest  Level FlightAware Approximate
Wed 11:32:15 PM 61.8842 156.9513 237° Southwest  Level FlightAware Approximate
Wed 11:33:15 PM 61.8148 156.7235 237° Southwest  Level FlightAware Approximate
Wed 11:34:15 PM 61.7451 156.4968 237° Southwest  Level FlightAware Approximate
Wed 11:35:15 PM 61.6750 156.2711 237° Southwest  Level FlightAware Approximate
Wed 11:36:15 PM 61.6045 156.0464 236° Southwest  Level FlightAware Approximate
Wed 11:37:15 PM 61.5337 155.8228 236° Southwest  Level FlightAware Approximate
Wed 11:38:15 PM 61.4625 155.6001 236° Southwest  Level FlightAware Approximate
Wed 11:39:15 PM 61.3909 155.3785 236° Southwest  Level FlightAware Approximate
Wed 11:40:15 PM 61.3190 155.1579 236° Southwest  Level FlightAware Approximate
Wed 11:41:15 PM 61.2467 154.9383 235° Southwest  Level FlightAware Approximate
Wed 11:42:15 PM 61.1740 154.7197 235° Southwest  Level FlightAware Approximate
Wed 11:43:15 PM 61.1011 154.5021 235° Southwest  Level FlightAware Approximate
Wed 11:44:15 PM 61.0277 154.2856 237° Southwest  Level FlightAware Approximate
Wed 11:45:15 PM 60.9590 154.0641 235° Southwest  Level FlightAware Approximate
Wed 11:46:15 PM 60.8850 153.8496 235° Southwest  Level FlightAware Approximate
Wed 11:47:15 PM 60.8106 153.6360 234° Southwest  Level FlightAware Approximate
Wed 11:48:15 PM 60.7359 153.4235 234° Southwest  Level FlightAware Approximate
Wed 11:49:15 PM 60.6608 153.2119 234° Southwest  Level FlightAware Approximate
Wed 11:50:15 PM 60.5854 153.0013 234° Southwest  Level FlightAware Approximate
Wed 11:51:15 PM 60.5097 152.7917 235° Southwest  Level FlightAware Approximate
Wed 11:52:15 PM 60.4352 152.5807 236° Southwest  Level FlightAware Approximate
Wed 11:53:15 PM 60.3642 152.3654 236° Southwest  Level FlightAware Approximate
Wed 11:54:15 PM 60.2929 152.1510 236° Southwest  Level FlightAware Approximate
Wed 11:55:15 PM 60.2211 151.9375 236° Southwest  Level FlightAware Approximate
Wed 11:56:15 PM 60.1491 151.7250 236° Southwest  Level FlightAware Approximate
Wed 11:57:15 PM 60.0767 151.5134 235° Southwest  Level FlightAware Approximate
Wed 11:58:15 PM 60.0040 151.3027 235° Southwest  Level FlightAware Approximate
Wed 11:59:15 PM 59.9309 151.0930 235° Southwest  Level FlightAware Approximate
Thu 12:00:15 AM 59.8575 150.8842 235° Southwest  Level FlightAware Approximate
Thu 12:01:15 AM 59.7838 150.6763 235° Southwest  Level FlightAware Approximate
Thu 12:02:15 AM 59.7097 150.4694 235° Southwest  Level FlightAware Approximate
Thu 12:03:15 AM 59.6354 150.2633 234° Southwest  Level FlightAware Approximate
Thu 12:04:15 AM 59.5607 150.0582 234° Southwest  Level FlightAware Approximate
Thu 12:05:15 AM 59.4856 149.8539 234° Southwest  Level FlightAware Approximate
Thu 12:06:15 AM 59.4103 149.6506 234° Southwest  Level FlightAware Approximate
Thu 12:07:15 AM 59.3347 149.4482 234° Southwest  Level FlightAware Approximate
Thu 12:08:15 AM 59.2587 149.2467 233° Southwest  Level FlightAware Approximate
Thu 12:09:15 AM 59.1824 149.0461 233° Southwest  Level FlightAware Approximate
Thu 12:10:15 AM 59.1059 148.8463 233° Southwest  Level FlightAware Approximate
Thu 12:11:15 AM 59.0290 148.6475 233° Southwest  Level FlightAware Approximate
Thu 12:12:15 AM 58.9518 148.4496 233° Southwest  Level FlightAware Approximate
Thu 12:13:15 AM 58.8743 148.2525 233° Southwest  Level FlightAware Approximate
Thu 12:14:15 AM 58.7965 148.0563 232° Southwest  Level FlightAware Approximate
Thu 12:15:15 AM 58.7184 147.8610 232° Southwest  Level FlightAware Approximate
Thu 12:16:15 AM 58.6400 147.6666 232° Southwest  Level FlightAware Approximate
Thu 12:17:15 AM 58.5614 147.4731 232° Southwest  Level FlightAware Approximate
Thu 12:18:15 AM 58.4824 147.2804 232° Southwest  Level FlightAware Approximate
Thu 12:19:15 AM 58.4032 147.0886 232° Southwest  Level FlightAware Approximate
Thu 12:20:15 AM 58.3237 146.8976 231° Southwest  Level FlightAware Approximate
Thu 12:21:15 AM 58.2438 146.7075 231° Southwest  Level FlightAware Approximate
Thu 12:22:15 AM 58.1637 146.5183 231° Southwest  Level FlightAware Approximate
Thu 12:23:15 AM 58.0834 146.3299 231° Southwest  Level FlightAware Approximate
Thu 12:24:15 AM 58.0027 146.1424 231° Southwest  Level FlightAware Approximate
Thu 12:25:15 AM 57.9218 145.9557 231° Southwest  Level FlightAware Approximate
Thu 12:26:15 AM 57.8406 145.7698 231° Southwest  Level FlightAware Approximate
Thu 12:27:15 AM 57.7591 145.5848 230° Southwest  Level FlightAware Approximate
Thu 12:28:15 AM 57.6774 145.4006 230° Southwest  Level FlightAware Approximate
Thu 12:29:15 AM 57.5954 145.2173 230° Southwest  Level FlightAware Approximate
Thu 12:30:15 AM 57.5131 145.0348 230° Southwest  Level FlightAware Approximate
Thu 12:31:15 AM 57.4306 144.8531 230° Southwest  Level FlightAware Approximate
Thu 12:32:15 AM 57.3478 144.6722 230° Southwest  Level FlightAware Approximate
Thu 12:33:15 AM 57.2648 144.4921 229° Southwest  Level FlightAware Approximate
Thu 12:34:15 AM 57.1815 144.3128 229° Southwest  Level FlightAware Approximate
Thu 12:35:15 AM 57.0979 144.1344 229° Southwest  Level FlightAware Approximate
Thu 12:36:15 AM 57.0141 143.9567 229° Southwest  Level FlightAware Approximate
Thu 12:37:15 AM 56.9300 143.7799 229° Southwest  Level FlightAware Approximate
Thu 12:38:15 AM 56.8457 143.6039 229° Southwest  Level FlightAware Approximate
Thu 12:39:15 AM 56.7612 143.4286 229° Southwest  Level FlightAware Approximate
Thu 12:40:15 AM 56.6764 143.2541 228° Southwest  Level FlightAware Approximate
Thu 12:41:15 AM 56.5913 143.0804 228° Southwest  Level FlightAware Approximate
Thu 12:42:15 AM 56.5061 142.9075 228° Southwest  Level FlightAware Approximate
Thu 12:43:15 AM 56.4205 142.7354 228° Southwest  Level FlightAware Approximate
Thu 12:44:15 AM 56.3348 142.5641 228° Southwest  Level FlightAware Approximate
Thu 12:45:15 AM 56.2488 142.3935 228° Southwest  Level FlightAware Approximate
Thu 12:46:15 AM 56.1626 142.2236 228° Southwest  Level FlightAware Approximate
Thu 12:47:15 AM 56.0761 142.0546 227° Southwest  Level FlightAware Approximate
Thu 12:48:15 AM 55.9894 141.8863 227° Southwest  Level FlightAware Approximate
Thu 12:49:15 AM 55.9025 141.7188 227° Southwest  Level FlightAware Approximate
Thu 12:50:15 AM 55.8153 141.5520 227° Southwest  Level FlightAware Approximate
Thu 12:51:15 AM 55.7280 141.3859 227° Southwest  Level FlightAware Approximate
Thu 12:52:15 AM 55.6404 141.2206 227° Southwest  Level FlightAware Approximate
Thu 12:53:15 AM 55.5526 141.0561 227° Southwest  Level FlightAware Approximate
Thu 12:54:15 AM 55.4645 140.8922 226° Southwest  Level FlightAware Approximate
Thu 12:55:15 AM 55.3763 140.7291 226° Southwest  Level FlightAware Approximate
Thu 12:56:15 AM 55.2878 140.5668 226° Southwest  Level FlightAware Approximate
Thu 12:57:15 AM 55.1991 140.4051 226° Southwest  Level FlightAware Approximate
Thu 12:58:15 AM 55.1102 140.2442 226° Southwest  Level FlightAware Approximate
Thu 12:59:15 AM 55.0211 140.0840 226° Southwest  Level FlightAware Approximate
Thu 01:00:15 AM 54.9318 139.9245 226° Southwest  Level FlightAware Approximate
Thu 01:01:15 AM 54.8423 139.7657 226° Southwest  Level FlightAware Approximate
Thu 01:02:15 AM 54.7526 139.6076 225° Southwest  Level FlightAware Approximate
Thu 01:03:15 AM 54.6627 139.4502 225° Southwest  Level FlightAware Approximate
Thu 01:04:15 AM 54.5725 139.2935 225° Southwest  Level FlightAware Approximate
Thu 01:05:15 AM 54.4822 139.1375 225° Southwest  Level FlightAware Approximate
Thu 01:06:15 AM 54.3916 138.9822 225° Southwest  Level FlightAware Approximate
Thu 01:07:15 AM 54.3009 138.8275 225° Southwest  Level FlightAware Approximate
Thu 01:08:15 AM 54.2100 138.6736 225° Southwest  Level FlightAware Approximate
Thu 01:09:15 AM 54.1188 138.5203 224° Southwest  Level FlightAware Approximate
Thu 01:10:15 AM 54.0275 138.3677 224° Southwest  Level FlightAware Approximate
Thu 01:11:15 AM 53.9360 138.2158 224° Southwest  Level FlightAware Approximate
Thu 01:12:15 AM 53.8443 138.0645 224° Southwest  Level FlightAware Approximate
Thu 01:13:15 AM 53.7524 137.9139 224° Southwest  Level FlightAware Approximate
Thu 01:14:15 AM 53.6603 137.7640 224° Southwest  Level FlightAware Approximate
Thu 01:15:15 AM 53.5681 137.6147 224° Southwest  Level FlightAware Approximate
Thu 01:16:15 AM 53.4756 137.4660 224° Southwest  Level FlightAware Approximate
Thu 01:17:15 AM 53.3830 137.3181 224° Southwest  Level FlightAware Approximate
Thu 01:18:15 AM 53.2901 137.1707 223° Southwest  Level FlightAware Approximate
Thu 01:19:15 AM 53.1971 137.0240 223° Southwest  Level FlightAware Approximate
Thu 01:20:15 AM 53.1040 136.8779 223° Southwest  Level FlightAware Approximate
Thu 01:21:15 AM 53.0106 136.7325 223° Southwest  Level FlightAware Approximate
Thu 01:22:15 AM 52.9171 136.5876 223° Southwest  Level FlightAware Approximate
Thu 01:23:15 AM 52.8234 136.4435 223° Southwest  Level FlightAware Approximate
Thu 01:24:15 AM 52.7295 136.2999 223° Southwest  Level FlightAware Approximate
Thu 01:25:15 AM 52.6354 136.1570 223° Southwest  Level FlightAware Approximate
Thu 01:26:15 AM 52.5412 136.0146 222° Southwest  Level FlightAware Approximate
Thu 01:27:15 AM 52.4468 135.8729 222° Southwest  Level FlightAware Approximate
Thu 01:28:15 AM 52.3522 135.7318 222° Southwest  Level FlightAware Approximate
Thu 01:29:15 AM 52.2575 135.5913 222° Southwest  Level FlightAware Approximate
Thu 01:30:15 AM 52.1626 135.4514 222° Southwest  Level FlightAware Approximate
Thu 01:31:15 AM 52.0675 135.3120 222° Southwest  Level FlightAware Approximate
Thu 01:32:15 AM 51.9723 135.1733 222° Southwest  Level FlightAware Approximate
Thu 01:33:15 AM 51.8769 135.0352 222° Southwest  Level FlightAware Approximate
Thu 01:34:15 AM 51.7813 134.8976 222° Southwest  Level FlightAware Approximate
Thu 01:35:15 AM 51.6856 134.7606 221° Southwest  Level FlightAware Approximate
Thu 01:36:15 AM 51.5898 134.6242 221° Southwest  Level FlightAware Approximate
Thu 01:37:15 AM 51.4937 134.4884 221° Southwest  Level FlightAware Approximate
Thu 01:38:15 AM 51.3975 134.3532 221° Southwest  Level FlightAware Approximate
Thu 01:39:15 AM 51.3012 134.2185 221° Southwest  Level FlightAware Approximate
Thu 01:40:15 AM 51.2047 134.0844 221° Southwest  Level FlightAware Approximate
Thu 01:41:15 AM 51.1081 133.9508 221° Southwest  Level FlightAware Approximate
Thu 01:42:15 AM 51.0113 133.8178 221° Southwest  Level FlightAware Approximate
Thu 01:43:15 AM 50.9143 133.6854 221° Southwest  Level FlightAware Approximate
Thu 01:44:15 AM 50.8172 133.5535 221° Southwest  Level FlightAware Approximate
Thu 01:45:15 AM 50.7200 133.4222 220° Southwest  Level FlightAware Approximate
Thu 01:46:15 AM 50.6226 133.2914 220° Southwest  Level FlightAware Approximate
Thu 01:47:15 AM 50.5250 133.1611 220° Southwest  Level FlightAware Approximate
Thu 01:48:15 AM 50.4274 133.0314 220° Southwest  Level FlightAware Approximate
Thu 01:49:15 AM 50.3295 132.9022 220° Southwest  Level FlightAware Approximate
Thu 01:50:15 AM 50.2316 132.7736 220° Southwest  Level FlightAware Approximate
Thu 01:51:15 AM 50.1334 132.6454 220° Southwest  Level FlightAware Approximate
Thu 01:52:15 AM 50.0352 132.5179 220° Southwest  Level FlightAware Approximate
Thu 01:53:15 AM 49.9368 132.3908 220° Southwest  Level FlightAware Approximate
Thu 01:54:15 AM 49.8383 132.2642 220° Southwest  Level FlightAware Approximate
Thu 01:55:15 AM 49.7396 132.1382 219° Southwest  Level FlightAware Approximate
Thu 01:56:15 AM 49.6408 132.0126 219° Southwest  Level FlightAware Approximate
Thu 01:57:15 AM 49.5419 131.8876 219° Southwest  Level FlightAware Approximate
Thu 01:58:15 AM 49.4428 131.7631 219° Southwest  Level FlightAware Approximate
Thu 01:59:15 AM 49.3436 131.6391 219° Southwest  Level FlightAware Approximate
Thu 02:00:15 AM 49.2443 131.5155 219° Southwest  Level FlightAware Approximate
Thu 02:01:15 AM 49.1448 131.3925 219° Southwest  Level FlightAware Approximate
Thu 02:02:15 AM 49.0452 131.2700 219° Southwest  Level FlightAware Approximate
Thu 02:03:15 AM 48.9454 131.1479 219° Southwest  Level FlightAware Approximate
Thu 02:04:15 AM 48.8456 131.0264 219° Southwest  Level FlightAware Approximate
Thu 02:05:15 AM 48.7456 130.9053 219° Southwest  Level FlightAware Approximate
Thu 02:06:15 AM 48.6455 130.7847 216° Southwest  Level FlightAware Approximate
Thu 02:07:15 AM 48.5415 130.6721 216° Southwest  Level FlightAware Approximate
Thu 02:08:15 AM 48.4375 130.5600 215° Southwest  Level FlightAware Approximate
Thu 02:09:15 AM 48.3333 130.4483 215° Southwest  Level FlightAware Approximate
Thu 02:10:15 AM 48.2290 130.3371 215° Southwest  Level FlightAware Approximate
Thu 02:11:15 AM 48.1245 130.2263 215° Southwest  Level FlightAware Approximate
Thu 02:12:15 AM 48.0200 130.1160 215° Southwest  Level FlightAware Approximate
Thu 02:13:15 AM 47.9154 130.0061 215° Southwest  Level FlightAware Approximate
Thu 02:14:15 AM 47.8107 129.8967 215° Southwest  Level FlightAware Approximate
Thu 02:15:15 AM 47.7059 129.7877 215° Southwest  Level FlightAware Approximate
Thu 02:16:15 AM 47.6009 129.6792 215° Southwest  Level FlightAware Approximate
Thu 02:17:15 AM 47.4959 129.5711 215° Southwest  Level FlightAware Approximate
Thu 02:18:15 AM 47.3908 129.4634 215° Southwest  Level FlightAware Approximate
Thu 02:19:15 AM 47.2855 129.3561 215° Southwest  Level FlightAware Approximate
Thu 02:20:15 AM 47.1802 129.2493 215° Southwest  Level FlightAware Approximate
Thu 02:21:15 AM 47.0748 129.1429 214° Southwest  Level FlightAware Approximate
Thu 02:22:15 AM 46.9693 129.0369 214° Southwest  Level FlightAware Approximate
Thu 02:23:15 AM 46.8636 128.9314 214° Southwest  Level FlightAware Approximate
Thu 02:24:15 AM 46.7579 128.8262 214° Southwest  Level FlightAware Approximate
Thu 02:25:15 AM 46.6521 128.7215 214° Southwest  Level FlightAware Approximate
Thu 02:26:15 AM 46.5462 128.6171 214° Southwest  Level FlightAware Approximate
Thu 02:27:15 AM 46.4402 128.5132 214° Southwest  Level FlightAware Approximate
Thu 02:28:15 AM 46.3341 128.4097 214° Southwest  Level FlightAware Approximate
Thu 02:29:15 AM 46.2279 128.3066 214° Southwest  Level FlightAware Approximate
Thu 02:30:15 AM 46.1216 128.2038 214° Southwest  Level FlightAware Approximate
Thu 02:31:15 AM 46.0152 128.1015 214° Southwest  Level FlightAware Approximate
Thu 02:32:15 AM 45.9087 127.9996 214° Southwest  Level FlightAware Approximate
Thu 02:33:15 AM 45.8022 127.8980 214° Southwest  Level FlightAware Approximate
Thu 02:34:15 AM 45.6955 127.7969 210° Southwest  Level FlightAware Approximate
Thu 02:35:15 AM 45.5846 127.7057 210° Southwest  Level FlightAware Approximate
Thu 02:36:15 AM 45.4737 127.6149 210° Southwest  Level FlightAware Approximate
Thu 02:37:15 AM 45.3627 127.5245 210° Southwest  Level FlightAware Approximate
Thu 02:38:15 AM 45.2516 127.4344 210° Southwest  Level FlightAware Approximate
Thu 02:39:15 AM 45.1404 127.3446 210° Southwest  Level FlightAware Approximate
Thu 02:40:15 AM 45.0291 127.2552 210° Southwest  Level FlightAware Approximate
Thu 02:41:15 AM 44.9178 127.1662 209° Southwest  Level FlightAware Approximate
Thu 02:42:15 AM 44.8065 127.0775 209° Southwest  Level FlightAware Approximate
Thu 02:43:15 AM 44.6950 126.9891 209° Southwest  Level FlightAware Approximate
Thu 02:44:15 AM 44.5835 126.9011 209° Southwest  Level FlightAware Approximate
Thu 02:45:15 AM 44.4719 126.8134 209° Southwest  Level FlightAware Approximate
Thu 02:46:15 AM 44.3603 126.7261 209° Southwest  Level FlightAware Approximate
Thu 02:47:15 AM 44.2486 126.6391 209° Southwest  Level FlightAware Approximate
Thu 02:48:15 AM 44.1368 126.5524 209° Southwest  Level FlightAware Approximate
Thu 02:49:15 AM 44.0250 126.4660 209° Southwest  Level FlightAware Approximate
Thu 02:50:15 AM 43.9131 126.3800 209° Southwest  Level FlightAware Approximate
Thu 02:51:15 AM 43.8011 126.2943 209° Southwest  Level FlightAware Approximate
Thu 02:52:15 AM 43.6890 126.2089 209° Southwest  Level FlightAware Approximate
Thu 02:53:15 AM 43.5769 126.1238 209° Southwest  Level FlightAware Approximate
Thu 02:54:15 AM 43.4648 126.0391 209° Southwest  Level FlightAware Approximate
Thu 02:55:15 AM 43.3526 125.9546 209° Southwest  Level FlightAware Approximate
Thu 02:56:15 AM 43.2403 125.8705 209° Southwest  Level FlightAware Approximate
Thu 02:57:15 AM 43.1279 125.7867 209° Southwest  Level FlightAware Approximate
Thu 02:58:15 AM 43.0155 125.7032 208° Southwest  Level FlightAware Approximate
Thu 02:59:15 AM 42.9030 125.6200 208° Southwest  Level FlightAware Approximate
Thu 03:00:15 AM 42.7905 125.5371 208° Southwest  Level FlightAware Approximate
Thu 03:01:15 AM 42.6779 125.4545 208° Southwest  Level FlightAware Approximate
Thu 03:02:15 AM 42.5653 125.3722 208° Southwest  Level FlightAware Approximate
Thu 03:03:15 AM 42.4526 125.2902 208° Southwest  Level FlightAware Approximate
Thu 03:04:15 AM 42.3398 125.2085 208° Southwest  Level FlightAware Approximate
Thu 03:05:15 AM 42.2270 125.1271 197° South  Level FlightAware Approximate
Thu 03:06:15 AM 42.1048 125.0761 197° South  Level FlightAware Approximate
Thu 03:07:15 AM 41.9826 125.0254 197° South  Level FlightAware Approximate
Thu 03:08:15 AM 41.8603 124.9749 197° South  Level FlightAware Approximate
Thu 03:09:15 AM 41.7381 124.9245 197° South  Level FlightAware Approximate
Thu 03:10:15 AM 41.6158 124.8744 197° South  Level FlightAware Approximate
Thu 03:11:15 AM 41.4935 124.8244 197° South  Level FlightAware Approximate
Thu 03:12:15 AM 41.3712 124.7747 197° South  Level FlightAware Approximate
Thu 03:13:15 AM 41.2488 124.7251 197° South  Level FlightAware Approximate
Thu 03:14:15 AM 41.1264 124.6757 159° South  Level FlightAware Approximate
Thu 03:15:15 AM 41.0071 124.7368 248° West  Level Estimated
Thu 03:16:15 AM 40.6510 123.5861 145° Southeast  Level FlightAware Approximate
Thu 03:17:15 AM 40.5458 123.6819 145° Southeast  Level FlightAware Approximate
Thu 03:18:15 AM 40.4406 123.7775 145° Southeast  Level FlightAware Approximate
Thu 03:19:15 AM 40.3353 123.8728 145° Southeast  Level FlightAware Approximate
Thu 03:20:15 AM 40.2299 123.9677 146° Southeast  Level FlightAware Approximate
Thu 03:21:15 AM 40.1244 124.0624 146° Southeast  Level FlightAware Approximate
Thu 03:22:15 AM 40.0189 124.1568 146° Southeast  Level FlightAware Approximate
Thu 03:23:15 AM 39.9133 124.2509 146° Southeast  Level FlightAware Approximate
Thu 03:24:15 AM 39.8076 124.3447 144° Southeast  Level FlightAware Approximate
Thu 03:25:15 AM 39.7038 124.4419 258° West  Level Estimated
Thu 03:26:15 AM 39.4574 123.0108 126° Southeast  Level FlightAware Approximate
Thu 03:27:15 AM 39.3813 123.1439 127° Southeast  Level FlightAware Approximate
Thu 03:28:15 AM 39.3050 123.2767 127° Southeast  Level FlightAware Approximate
Thu 03:29:15 AM 39.2286 123.4091 127° Southeast  Level FlightAware Approximate
Thu 03:30:15 AM 39.1521 123.5414 127° Southeast  Level FlightAware Approximate
Thu 03:31:15 AM 39.0754 123.6733 127° Southeast  Level FlightAware Approximate
Thu 03:32:15 AM 38.9986 123.8049 127° Southeast  Level FlightAware Approximate
Thu 03:33:15 AM 38.9216 123.9362 127° Southeast  Level FlightAware Approximate
Thu 03:34:15 AM 38.8445 124.0673 127° Southeast  Level FlightAware Approximate
Thu 03:35:15 AM 38.7672 124.1981 127° Southeast  Level FlightAware Approximate
Thu 03:36:15 AM 38.6898 124.3286 127° Southeast  Level FlightAware Approximate
Thu 03:37:15 AM 38.6122 124.4588 127° Southeast  Level FlightAware Approximate
Thu 03:38:15 AM 38.5345 124.5887 127° Southeast  Level FlightAware Approximate
Thu 03:39:15 AM 38.4567 124.7184 128° Southeast  Level FlightAware Approximate
Thu 03:40:15 AM 38.3787 124.8477 128° Southeast  Level FlightAware Approximate
Thu 03:41:15 AM 38.3005 124.9768 125° Southeast  Level FlightAware Approximate
Thu 03:42:15 AM 38.2269 125.1100 247° West  Level Estimated
Thu 03:43:15 AM 37.6063 123.2670 93° East  Level FlightAware Approximate
Thu 03:44:15 AM 37.6002 123.4283 93° East  Level FlightAware Approximate
Thu 03:45:15 AM 37.5938 123.5895 93° East  Level FlightAware Approximate
Thu 03:46:15 AM 37.5872 123.7507 93° East  Level FlightAware Approximate
Thu 03:47:15 AM 37.5803 123.9118 93° East  Level FlightAware Approximate
Thu 03:48:15 AM 37.5733 124.0730 93° East  Level FlightAware Approximate
Thu 03:49:15 AM 37.5660 124.2340 93° East  Level FlightAware Approximate
Thu 03:50:15 AM 37.5585 124.3951 93° East  Level FlightAware Approximate
Thu 03:51:15 AM 37.5508 124.5561 94° East  Level FlightAware Approximate
Thu 03:52:15 AM 37.5429 124.7171 94° East  Level FlightAware Approximate
Thu 03:53:15 AM 37.5347 124.8781 94° East  Level FlightAware Approximate
Thu 03:54:15 AM 37.5264 125.0390 94° East  Level FlightAware Approximate
Thu 03:55:15 AM 37.5178 125.1999 94° East  Level FlightAware Approximate
Thu 03:56:15 AM 37.5090 125.3608 94° East  Level FlightAware Approximate
Thu 03:57:15 AM 37.5000 125.5216 94° East  Level FlightAware Approximate
Thu 03:58:15 AM 37.4907 125.6824 94° East  Level FlightAware Approximate
Thu 03:59:15 AM 37.4813 125.8431 94° East  Level FlightAware Approximate
Thu 04:00:15 AM 37.4716 126.0038 94° East  Level FlightAware Approximate
Thu 04:01:15 AM 37.4617 126.1645 105° East  Level FlightAware Approximate
Thu 04:02:15 AM 37.4325 126.3061 63° Northeast  Level FlightAware Approximate
Thu 04:03:15 AM 37.4833 126.4333 136° Southeast  Level FlightAware Approximate
Thu 04:04:15 AM 37.3909 126.5446 316° Northwest  Level Estimated
Thu 04:05:15 AM 37.4833 126.4333 136° Southeast  Level Estimated
Thu 04:06:15 AM 37.3909 126.5446 316° Northwest  Level Estimated
Thu 04:07:15 AM 37.4833 126.4333 136° Southeast  Level Estimated
Thu 04:08:15 AM 37.3909 126.5446 316° Northwest  Level Estimated
Thu 04:09:15 AM 37.4833 126.4333 136° Southeast  Level FlightAware Approximate
Thu 04:10:15 AM 37.3909 126.5446 316° Northwest  Level Estimated
Thu 04:11:15 AM 37.4833 126.4333 136° Southeast  Level FlightAware Approximate
Thu 04:12:15 AM 37.3909 126.5446 316° Northwest  Level Estimated
Thu 04:13:15 AM 37.4833 126.4333 136° Southeast  Level FlightAware Approximate
Thu 04:14:15 AM 37.3909 126.5446 316° Northwest  Level Estimated
Thu 04:15:15 AM 37.4833 126.4333 136° Southeast  Level FlightAware Approximate
Thu 04:16:15 AM 37.3909 126.5446 316° Northwest  Level Estimated
Thu 04:17:15 AM 37.4833 126.4333 136° Southeast  Level FlightAware Approximate
Thu 04:18:15 AM 37.3909 126.5446 316° Northwest  Level Estimated
Thu 04:19:15 AM 37.4833 126.4333 136° Southeast  Level FlightAware Approximate
Thu 04:20:15 AM 37.3909 126.5446 316° Northwest  Level Estimated
Thu 04:21:15 AM 37.4833 126.4333 136° Southeast  Level FlightAware Approximate
Thu 04:22:15 AM 37.3909 126.5446 316° Northwest  Level Estimated
Thu 04:23:15 AM 37.4833 126.4333 136° Southeast  Level FlightAware Approximate
Thu 04:24:15 AM 37.3909 126.5446 316° Northwest  Level Estimated
Thu 04:25:15 AM 37.4833 126.4333 316° Northwest  Level FlightAware Approximate

Login

Don't have an account? Register now (free) for customized features, flight alerts, and more!